Time;durP1;ratioP1;P1;durP2;ratioP2;P2;SDS_P1;SDS_P2;PMS_P1;PMS_P2;Temp;Humidity;BMP_temperature;BMP_pressure;BME280_temperature;BME280_humidity;BME280_pressure;Samples;Min_cycle;Max_cycle;Signal;HPM_P1;HPM_P2
2022/10/04 06:19:47;;;;;;;2.95;1.22;;;;;;;9.66;86.94;99651.48;1636249;85;21617;-42
2022/10/04 06:33:43;;;;;;;2.52;1.27;;;;;;;9.91;84.61;99666.09;1599709;88;21088;-38
2022/10/04 06:36:36;;;;;;;3.83;1.80;;;;;;;9.96;84.43;99668.24;1640994;85;21058;-41
2022/10/04 06:39:40;;;;;;;3.62;1.25;;;;;;;10.00;83.56;99676.94;1639794;86;21977;-37
2022/10/04 06:42:48;;;;;;;3.22;1.27;;;;;;;10.01;83.54;99678.67;1621752;87;21137;-37
2022/10/04 06:45:53;;;;;;;1.98;1.47;;;;;;;10.01;82.98;99678.67;1635092;85;21054;-36
2022/10/04 06:48:44;;;;;;;2.42;1.15;;;;;;;10.03;83.13;99680.81;1640556;85;21656;-38
2022/10/04 06:51:17;;;;;;;3.52;1.17;;;;;;;10.07;83.58;99692.99;1648219;85;21093;-36
2022/10/04 06:53:58;;;;;;;3.52;1.47;;;;;;;10.11;83.20;99691.66;1646153;86;20986;-45
2022/10/04 06:59:58;;;;;;;1.55;1.30;;;;;;;10.21;83.23;99692.47;1789409;79;23475;-37
2022/10/04 07:02:55;;;;;;;2.20;1.70;;;;;;;10.22;83.02;99709.88;1708180;82;21864;-41
2022/10/04 07:05:33;;;;;;;2.08;1.60;;;;;;;10.26;82.71;99698.56;1676775;84;21055;-40
2022/10/04 07:08:41;;;;;;;3.17;1.45;;;;;;;10.27;82.42;99705.52;1679904;84;21595;-35
2022/10/04 07:10:54;;;;;;;2.02;1.62;;;;;;;10.30;82.78;99709.39;1672072;84;21501;-37
2022/10/04 07:13:34;;;;;;;1.70;1.37;;;;;;;10.31;83.20;99709.82;1676445;84;21111;-36
2022/10/04 07:16:50;;;;;;;3.20;1.82;;;;;;;10.37;83.24;99716.75;1657350;84;21827;-42
2022/10/04 07:19:51;;;;;;;2.75;1.77;;;;;;;10.42;82.88;99719.33;1672432;84;21182;-38
2022/10/04 07:23:13;;;;;;;2.90;1.80;;;;;;;10.47;81.94;99722.78;1677221;84;21050;-40
2022/10/04 07:26:08;;;;;;;2.20;1.65;;;;;;;10.48;82.31;99725.38;1673255;84;21156;-36
2022/10/04 07:31:35;;;;;;;2.77;1.50;;;;;;;10.60;82.36;99721.78;1665531;84;21145;-41
2022/10/04 07:34:25;;;;;;;4.03;1.72;;;;;;;10.68;81.90;99724.34;1667431;84;21512;-36
2022/10/04 07:36:59;;;;;;;2.22;1.60;;;;;;;10.77;81.37;99727.72;1671695;84;21086;-36
2022/10/04 07:39:31;;;;;;;3.00;1.75;;;;;;;10.88;81.23;99736.33;1681106;83;20973;-36
2022/10/04 07:42:17;;;;;;;3.67;1.57;;;;;;;10.99;80.88;99729.69;1710096;82;21325;-41
2022/10/04 07:44:50;;;;;;;2.58;1.47;;;;;;;11.11;80.43;99728.69;1683435;83;21028;-43
2022/10/04 07:47:28;;;;;;;2.77;1.65;;;;;;;11.24;79.89;99739.88;1708471;82;21049;-37
2022/10/04 07:49:59;;;;;;;9.70;1.62;;;;;;;11.34;79.84;99730.59;1708919;82;21072;-41
2022/10/04 07:52:51;;;;;;;3.23;1.53;;;;;;;11.40;78.03;99749.30;1709125;83;21024;-42
2022/10/04 07:55:41;;;;;;;3.10;1.50;;;;;;;11.36;77.51;99741.91;1704851;82;21471;-42
2022/10/04 07:58:29;;;;;;;4.22;1.57;;;;;;;11.34;77.37;99763.77;1702993;82;21081;-42
2022/10/04 08:01:06;;;;;;;3.45;1.72;;;;;;;11.26;77.19;99752.09;1662492;84;21533;-42
2022/10/04 08:03:51;;;;;;;1.82;1.52;;;;;;;11.19;77.42;99769.62;1658851;85;21092;-41
2022/10/04 08:06:51;;;;;;;3.00;2.02;;;;;;;11.13;77.39;99772.72;1658553;84;21484;-41
2022/10/04 08:09:48;;;;;;;2.00;1.47;;;;;;;11.08;78.12;99766.25;1585995;88;21069;-42
2022/10/04 08:12:36;;;;;;;1.87;1.10;;;;;;;11.04;78.15;99772.39;1581896;89;21732;-43
2022/10/04 08:15:36;;;;;;;4.25;1.40;;;;;;;10.97;78.17;99776.41;1581742;89;21099;-37
2022/10/04 08:18:37;;;;;;;2.90;1.35;;;;;;;10.89;78.37;99779.94;1581582;89;21076;-37
2022/10/04 08:21:07;;;;;;;2.30;1.47;;;;;;;10.85;79.21;99785.23;1579435;89;21573;-37
2022/10/04 08:24:10;;;;;;;2.55;1.30;;;;;;;10.83;79.79;99798.76;1632371;86;21002;-37
2022/10/04 08:26:54;;;;;;;1.95;1.50;;;;;;;10.81;79.77;99803.14;1627661;86;21081;-42
2022/10/04 08:29:53;;;;;;;2.50;1.30;;;;;;;10.73;80.69;99795.37;1628900;86;21010;-37
2022/10/04 08:32:40;;;;;;;3.25;1.57;;;;;;;10.69;81.67;99800.64;1632454;86;21174;-37
2022/10/04 08:35:37;;;;;;;6.53;2.42;;;;;;;10.67;82.03;99812.43;1625847;86;21113;-36
2022/10/04 08:38:43;;;;;;;1.72;1.62;;;;;;;10.64;81.95;99796.75;1631903;86;21053;-41
2022/10/04 08:42:00;;;;;;;3.58;2.15;;;;;;;10.66;81.58;99801.52;1632475;86;21069;-41
2022/10/04 08:45:24;;;;;;;2.62;1.72;;;;;;;10.69;81.72;99803.25;1619322;86;21024;-37
2022/10/04 08:48:09;;;;;;;;;;;;;;;10.71;82.09;99806.72;1695175;82;20976;-38
2022/10/04 08:51:12;;;;;;;6.25;2.95;;;;;;;10.77;81.74;99802.30;1687736;83;20112;-36
2022/10/04 08:54:11;;;;;;;4.58;1.35;;;;;;;10.88;80.83;99811.36;1696225;82;20965;-37
2022/10/04 08:57:28;;;;;;;1.50;1.30;;;;;;;11.02;79.20;99799.03;1692521;82;21081;-37
2022/10/04 09:00:55;;;;;;;2.67;1.57;;;;;;;11.17;78.35;99811.09;1644106;84;21071;-37
2022/10/04 09:04:00;;;;;;;5.78;1.60;;;;;;;11.31;77.25;99815.76;1675392;85;21180;-37
2022/10/04 09:07:11;;;;;;;3.55;1.17;;;;;;;11.45;75.99;99816.45;1671341;85;21111;-37
2022/10/04 09:10:10;;;;;;;2.35;1.47;;;;;;;11.53;74.93;99834.70;1642365;85;21108;-36
2022/10/04 09:13:13;;;;;;;2.10;1.05;;;;;;;11.61;74.83;99826.77;1601467;88;20992;-36
2022/10/04 09:15:51;;;;;;;2.27;1.12;;;;;;;11.71;72.78;99819.20;1601907;88;21091;-36
2022/10/04 09:18:44;;;;;;;3.40;1.62;;;;;;;11.81;72.53;99834.39;1600469;89;21477;-37
2022/10/04 09:29:06;;;;;;;5.05;1.42;;;;;;;12.31;69.91;99828.52;1792081;78;23196;-41
2022/10/04 09:32:03;;;;;;;1.40;1.10;;;;;;;12.23;69.85;99820.77;1662408;84;21088;-41
2022/10/04 09:35:07;;;;;;;3.17;1.40;;;;;;;12.14;69.93;99843.61;1657285;84;21014;-41
2022/10/04 09:38:01;;;;;;;2.70;1.20;;;;;;;12.02;70.43;99839.41;1634039;85;21474;-42
2022/10/04 09:41:03;;;;;;;2.80;1.47;;;;;;;11.85;70.21;99854.03;1656175;84;21057;-35
2022/10/04 09:44:29;;;;;;;3.02;1.67;;;;;;;11.65;73.26;99861.20;1636715;84;21603;-37
2022/10/04 09:47:06;;;;;;;2.52;1.37;;;;;;;11.39;76.90;99874.59;1656710;85;21438;-36
2022/10/04 09:50:17;;;;;;;3.50;1.85;;;;;;;11.12;78.92;99869.17;1659367;84;21077;-42
2022/10/04 09:53:19;;;;;;;3.83;1.42;;;;;;;10.98;80.32;99869.30;1656484;84;21366;-41
2022/10/04 09:57:00;;;;;;;2.22;1.30;;;;;;;10.90;80.90;99882.46;1661247;84;21791;-42
2022/10/04 10:00:13;;;;;;;2.02;1.80;;;;;;;10.93;80.98;99873.70;1588755;85;21355;-42
2022/10/04 10:03:16;;;;;;;1.65;1.52;;;;;;;11.03;80.63;99877.13;1611905;87;21940;-42
2022/10/04 10:06:14;;;;;;;7.33;1.57;;;;;;;11.12;79.57;99869.17;1604094;87;21488;-42
2022/10/04 10:09:11;;;;;;;1.90;1.52;;;;;;;11.19;79.31;99870.43;1688201;83;21012;-38
2022/10/04 10:15:21;;;;;;;1.57;1.20;;;;;;;11.50;74.42;99881.04;1687755;83;21499;-41
2022/10/04 10:18:14;;;;;;;4.22;1.87;;;;;;;11.65;73.16;99876.93;1693238;83;21627;-42
2022/10/04 10:21:09;;;;;;;1.30;1.10;;;;;;;11.85;71.46;99866.27;1672884;84;21051;-37
2022/10/04 10:24:08;;;;;;;6.50;1.40;;;;;;;11.85;71.46;99866.27;1693444;83;21020;-36
2022/10/04 10:26:50;;;;;;;4.00;2.45;;;;;;;11.93;72.04;99881.45;1636840;85;21128;-36
2022/10/04 10:29:38;;;;;;;1.98;1.50;;;;;;;12.01;70.20;99878.76;1583717;89;21032;-37
2022/10/04 10:36:25;;;;;;;7.78;1.22;;;;;;;12.06;68.92;99876.91;1599901;88;21627;-43
2022/10/04 10:39:37;;;;;;;2.47;1.15;;;;;;;12.09;69.12;99869.89;1618335;87;21579;-41
2022/10/04 10:42:18;;;;;;;3.17;1.02;;;;;;;12.16;69.12;99869.36;1625621;86;21357;-43
2022/10/04 10:45:02;;;;;;;4.10;1.25;;;;;;;12.25;67.63;99867.49;1629585;86;21086;-42
2022/10/04 10:47:37;;;;;;;2.65;0.85;;;;;;;12.31;66.24;99866.99;1626397;86;21046;-38
2022/10/04 10:50:59;;;;;;;0.90;0.80;;;;;;;12.33;65.41;99867.38;1628421;86;21165;-43
2022/10/04 10:54:38;;;;;;;1.20;0.80;;;;;;;12.36;65.08;99869.97;1628123;86;21024;-43
2022/10/04 10:58:11;;;;;;;1.87;0.95;;;;;;;12.37;63.69;99873.02;1626666;86;21271;-43
2022/10/04 11:01:35;;;;;;;2.00;1.15;;;;;;;12.37;62.56;99874.77;1573682;89;21070;-38
2022/10/04 11:04:34;;;;;;;1.42;0.90;;;;;;;12.33;62.59;99886.19;1548434;90;22058;-41
2022/10/04 11:07:50;;;;;;;1.55;0.90;;;;;;;12.30;62.59;99877.94;1520960;92;21242;-39
2022/10/04 11:10:40;;;;;;;2.50;1.20;;;;;;;12.30;62.68;99892.36;1507022;94;21226;-38
2022/10/04 11:13:41;;;;;;;1.65;1.00;;;;;;;12.28;62.52;99890.17;1507446;94;21261;-38
2022/10/04 11:16:33;;;;;;;4.37;0.80;;;;;;;12.28;62.87;99887.55;1498322;95;21673;-36
2022/10/04 11:19:50;;;;;;;1.85;0.90;;;;;;;12.28;62.88;99891.48;1489666;93;21081;-42
2022/10/04 11:22:45;;;;;;;1.17;1.02;;;;;;;12.29;63.20;99894.53;1535892;92;21558;-38
2022/10/04 11:25:41;;;;;;;2.65;1.20;;;;;;;12.28;62.36;99899.36;1527457;92;21684;-43
2022/10/04 11:28:25;;;;;;;1.30;1.00;;;;;;;12.30;62.69;99897.60;1493967;95;21128;-37
2022/10/04 11:31:45;;;;;;;2.30;1.10;;;;;;;12.30;62.89;99896.73;1454859;98;21133;-43
2022/10/04 11:35:04;;;;;;;3.05;1.00;;;;;;;12.32;62.02;99901.06;1449408;98;21071;-42
2022/10/04 11:37:52;;;;;;;1.98;1.00;;;;;;;12.31;61.64;99895.40;1462023;96;21538;-43
2022/10/04 11:40:57;;;;;;;4.28;2.20;;;;;;;12.32;61.33;99898.89;1495117;94;21114;-42
2022/10/04 11:44:00;;;;;;;2.72;1.45;;;;;;;12.32;61.09;99898.89;1545166;89;21125;-38
2022/10/04 11:46:47;;;;;;;1.32;1.00;;;;;;;12.33;61.46;99907.17;1584390;90;21485;-43
2022/10/04 11:49:58;;;;;;;2.05;0.80;;;;;;;12.34;61.06;99911.08;1568777;91;21096;-42
2022/10/04 11:53:02;;;;;;;2.02;1.30;;;;;;;12.36;61.19;99910.64;1623977;87;21100;-38
2022/10/04 11:56:02;;;;;;;2.17;1.15;;;;;;;12.39;61.22;99920.20;1566196;90;21676;-43
2022/10/04 11:58:39;;;;;;;1.27;1.05;;;;;;;12.44;60.12;99918.39;1573107;90;21104;-38
